KFAM

Farmington Regional Airport

Farmington, Missouri, USA
METAR KFAM 191156Z AUTO 00000KT 10SM CLR 02/M02 A2994 RMK AO2 SLP143 T00221017 10044 20022 58015 FZRANO
Observed Flight Rules
Dec-19 @ 11:56 UTC (43 minutes ago) Visual Flight Rules
Visibility Clouds
10 miles
  • Clear skies
Temperatures Readings
Current 2°C / 36°F
Dewpoint -2°C / 28°F
Humidity 75%
Altimeter 29.94" Hg
Pressure 1014.3 hPa
Elevation 288
METAR KFAM 191156Z AUTO 00000KT 10SM CLR 02/M02 A2994 RMK AO2 SLP143 T00221017 10044 20022 58015 FZRANO
Observed Flight Rules
Dec-19 @ 11:56 UTC
(43 minutes ago)
VFR
Clouds
  • Clear skies
Temperature Dewpoint
2°C / 36°F -2°C / 28°F
Humidity Altimeter Pressure
75% 29.94" Hg 1014.3 hPa